Terminal Aerodrome Forecast
Issued by NWS Wilmington, OH

Current Version | Previous Version | Graphics & Text | Print | Product List | Glossary On
Versions: 1 2 3 4 5 6 7 8 9 10 11 12 13
000
FTUS41 KILN 221320 AAA
TAFCMH
TAF AMD
KCMH 221320Z 2213/2312 03012G20KT P6SM SCT060 OVC200
     FM221600 04010G16KT P6SM BKN070
     FM230600 04009KT P6SM SCT200=

USA.gov is the U.S. government's official web portal to all federal, state and local government web resources and services.